Whitetail, Montana
Current Conditions -  °F | °C
As of 1:53 AM on Wednesday 22 Oct 2014 (Local Time) from KOLF Reporting Station
Broken Clouds Broken Clouds  
Wind Chill: 53°   Ceiling: 11000
Heat Index: 53°   Visibility: 10mi
Dew Point: 46°   Wind: 14mph
Humidity: 77%   Direction: 260°W
Pressure: 29.75"   Gusts: NA
Location:  48.9°N, 105.16°W
Report Text: KOLF 220753Z AUTO 26012KT 10SM BKN110 12/08 A2975 RMK AO2 RAB39E49 SLP072 P0000 T01170078
Loading
Personal Weather Stations






























Interactive Weather Map
Tropical Storm Tracking
New forecast layout! Learn more

10-Day Weather Forecast

Advertisements
Track Severe Weather on mobile